Huvudsida
METAR-TAF:

METAR-TAF

Flygplatser :

Ronneby Airport

Ronneby, Sverige

latitud: 56-16N, longitud: 015-17E, höjd: 58 m

Aktuellt väderrapport

Denna rapport gjordes för 16 minuter sedan, klockan 05:50 UTC
Stilla vind
Temperatur 4°C
Fuktighet 100%
Tryck 1036 hPa
Sikt: 7000 m
dimbankar

METAR: ESDF 160550Z 00000KT 7000 BCFG NSC 04/04 Q1036

Tid: 07:06 (06:06 UTC)

Väderprognos

Denna rapport gjordes för 36 minuter sedan, klockan 05:30 UTC
Prognos gäller från 16 kl. 06 UTC till 16 kl. 15 UTC
Vind 3 kt från syd/sydost
Sikt: 0300 m
dimbankar
Blir
från 16 kl. 06 UTC till 16 kl. 08 UTC
Vind 10 kt från syd
Sikt 10 km eller mer
Spridda moln på en höjd av 800 ft

TAF: ESDF 160530Z 1606/1615 15003KT 0300 BCFG NSC BECMG 1606/1608 18010KT 9999 NSW SCT008 RMK MIL

Aktuella väderrapporter och prognoser från 4000 flygplatser (METAR- och TAF-rapporter).

De tillgängliga stationerna syns som gula och röda prickar på kartan.

För musen över prickarna för att se namnen på stationerna.

Klicka sedan för att få väderrapporter och prognoser.

För att ändra kartan: Klicka på de gröna knapparna med ett svart kors på för att zooma in; den gröna knappen med ett streck på för att zooma ut; eller på de gröna pilarna för angränsande kartor.


METAR-TAF: